Terminal Aerodrome Forecast
Issued by NWS

Home | Current Version | Previous Version | Text Only | Print | Product List | Glossary On
Versions: 1 2 3 4 5 6 7 8 9 10 11 12 13 14 15 16 17 18 19 20 21 22
789
FTUS43 KGRB 181445 AAA
TAFMTW
TAF AMD
KMTW 181445Z 1815/1912 35010G18KT P6SM OVC007
      TEMPO 1815/1818 SCT007 OVC012
     FM181800 33016G24KT P6SM SCT025 BKN028
     FM190100 31014KT P6SM BKN035=

USA.gov is the U.S. government's official web portal to all federal, state and local government web resources and services.